Time;durP1;ratioP1;P1;durP2;ratioP2;P2;SDS_P1;SDS_P2;PMS_P1;PMS_P2;Temp;Humidity;BMP_temperature;BMP_pressure;BME280_temperature;BME280_humidity;BME280_pressure;Samples;Min_cycle;Max_cycle;Signal;HPM_P1;HPM_P2
2023/03/24 03:02:42;;;;;;;2.50;2.30;;;14.00;99.90;;;;;;5060437;23;20606;-77
2023/03/24 03:05:16;;;;;;;2.67;2.37;;;14.00;99.90;;;;;;4975099;28;20605;-77
2023/03/24 03:07:44;;;;;;;2.57;2.37;;;13.90;99.90;;;;;;4965269;28;20239;-77
2023/03/24 03:10:17;;;;;;;2.30;2.10;;;13.90;99.90;;;;;;4972714;28;20205;-77
2023/03/24 03:12:50;;;;;;;3.63;2.47;;;13.90;99.90;;;;;;4975737;28;20224;-75
2023/03/24 03:15:23;;;;;;;2.70;2.50;;;13.90;99.90;;;;;;4976717;28;20295;-77
2023/03/24 03:17:57;;;;;;;2.50;2.30;;;14.00;99.90;;;;;;4976090;28;20207;-76
2023/03/24 03:20:29;;;;;;;3.13;2.50;;;14.00;99.90;;;;;;4969336;28;20207;-76
2023/03/24 03:23:00;;;;;;;2.73;2.50;;;14.00;99.90;;;;;;4973932;28;20333;-77
2023/03/24 03:25:32;;;;;;;3.07;2.80;;;14.00;99.90;;;;;;4972927;28;20266;-77
2023/03/24 03:28:03;;;;;;;2.60;2.40;;;14.10;99.90;;;;;;4968551;28;20716;-76
2023/03/24 03:30:36;;;;;;;2.70;2.40;;;14.00;99.90;;;;;;4973275;28;20199;-77
2023/03/24 03:33:10;;;;;;;3.30;2.67;;;14.00;99.90;;;;;;4972109;28;20606;-76
2023/03/24 03:35:41;;;;;;;3.27;2.50;;;14.00;99.90;;;;;;4972330;28;20213;-76
2023/03/24 03:38:14;;;;;;;2.70;2.50;;;14.00;99.90;;;;;;4958220;28;20200;-76
2023/03/24 03:40:49;;;;;;;3.23;2.43;;;14.00;99.90;;;;;;4970236;28;20232;-77
2023/03/24 03:43:20;;;;;;;2.30;2.10;;;14.00;99.90;;;;;;4961951;28;20209;-75
2023/03/24 03:45:47;;;;;;;2.93;2.33;;;14.10;99.90;;;;;;4968582;28;20209;-76
2023/03/24 03:48:17;;;;;;;2.50;2.30;;;14.10;99.90;;;;;;4966320;28;20595;-76
2023/03/24 03:50:45;;;;;;;2.50;2.30;;;14.10;99.90;;;;;;4969968;28;20516;-76
2023/03/24 03:53:17;;;;;;;3.83;2.27;;;14.10;99.90;;;;;;4966074;28;20241;-77
2023/03/24 03:55:44;;;;;;;2.87;2.40;;;14.20;99.90;;;;;;4954990;28;20205;-78
2023/03/24 03:58:11;;;;;;;2.80;2.53;;;14.20;99.90;;;;;;4948754;28;20200;-81
2023/03/24 04:00:46;;;;;;;2.73;2.47;;;14.20;99.90;;;;;;4951641;28;20230;-81
2023/03/24 04:03:51;;;;;;;2.67;2.27;;;14.20;99.90;;;;;;4959719;28;20209;-80
2023/03/24 04:06:31;;;;;;;2.50;2.30;;;14.20;99.90;;;;;;4951376;28;20647;-80
2023/03/24 04:09:06;;;;;;;2.97;2.40;;;14.20;99.90;;;;;;4957238;28;20203;-80
2023/03/24 04:12:01;;;;;;;3.67;2.50;;;14.30;99.90;;;;;;4949613;28;20235;-80
2023/03/24 04:15:19;;;;;;;2.57;2.37;;;14.40;99.90;;;;;;4951670;28;20308;-81
2023/03/24 04:18:33;;;;;;;2.57;2.37;;;14.50;99.90;;;;;;4946924;28;20221;-79
2023/03/24 04:21:37;;;;;;;2.03;1.83;;;14.60;99.90;;;;;;4949719;28;20728;-81
2023/03/24 04:24:18;;;;;;;2.77;2.40;;;14.60;99.90;;;;;;4972926;28;20210;-81
2023/03/24 04:26:54;;;;;;;2.40;2.20;;;14.50;99.90;;;;;;4959783;28;20724;-82
2023/03/24 04:29:30;;;;;;;2.47;2.27;;;14.40;99.90;;;;;;4937591;28;20200;-80
2023/03/24 04:32:03;;;;;;;2.40;2.20;;;14.30;99.90;;;;;;4955371;28;20658;-79
2023/03/24 04:34:34;;;;;;;2.13;1.97;;;14.20;99.90;;;;;;4962657;28;20197;-79
2023/03/24 04:37:13;;;;;;;2.30;2.10;;;14.10;99.90;;;;;;4963266;28;20232;-79
2023/03/24 04:40:01;;;;;;;2.50;2.30;;;14.00;99.90;;;;;;4968670;28;20295;-80
2023/03/24 04:42:34;;;;;;;2.10;2.00;;;14.00;99.90;;;;;;4967788;28;20219;-80
2023/03/24 04:45:02;;;;;;;2.10;1.90;;;14.00;99.90;;;;;;4971522;28;20213;-79
2023/03/24 04:47:54;;;;;;;2.20;2.00;;;14.00;99.90;;;;;;4967429;28;20245;-77
2023/03/24 04:50:53;;;;;;;1.70;1.60;;;14.00;99.90;;;;;;4963253;28;20285;-77
2023/03/24 04:53:22;;;;;;;1.90;1.80;;;14.00;99.90;;;;;;4962877;28;20211;-78
2023/03/24 04:56:00;;;;;;;2.23;2.03;;;14.00;99.90;;;;;;4961729;28;20284;-77
2023/03/24 04:58:50;;;;;;;1.90;1.80;;;14.00;99.90;;;;;;4966492;28;20211;-78
2023/03/24 05:01:20;;;;;;;1.80;1.70;;;14.00;99.90;;;;;;4966876;28;20358;-78
2023/03/24 05:04:00;;;;;;;2.13;2.00;;;14.00;99.90;;;;;;4970272;28;20209;-78
2023/03/24 05:06:28;;;;;;;1.90;1.80;;;14.00;99.90;;;;;;4971142;28;20230;-77
2023/03/24 05:08:57;;;;;;;2.07;1.90;;;14.00;99.90;;;;;;4961921;28;20201;-78
2023/03/24 05:11:27;;;;;;;2.10;2.00;;;14.00;99.90;;;;;;4969079;28;20221;-77
2023/03/24 05:14:02;;;;;;;2.03;1.93;;;14.00;99.90;;;;;;4970275;28;20221;-78
2023/03/24 05:16:29;;;;;;;2.00;1.90;;;14.00;99.90;;;;;;4965285;28;20201;-77
2023/03/24 05:19:00;;;;;;;2.00;1.90;;;14.00;99.90;;;;;;4962280;28;20570;-77
2023/03/24 05:21:29;;;;;;;2.00;1.90;;;14.00;99.90;;;;;;4971266;28;20220;-78
2023/03/24 05:23:58;;;;;;;1.90;1.80;;;13.90;99.90;;;;;;4970272;28;20232;-78
2023/03/24 05:26:26;;;;;;;2.07;1.97;;;13.90;99.90;;;;;;4969291;28;20196;-78
2023/03/24 05:29:06;;;;;;;2.67;2.47;;;13.90;99.90;;;;;;4967089;28;20540;-77
2023/03/24 05:31:34;;;;;;;2.93;2.57;;;13.90;99.90;;;;;;4967226;28;20259;-78
2023/03/24 05:34:12;;;;;;;2.77;2.20;;;13.90;99.90;;;;;;4961880;28;20650;-77
2023/03/24 05:36:50;;;;;;;3.23;2.60;;;13.90;99.90;;;;;;4961405;28;20384;-77
2023/03/24 05:39:21;;;;;;;4.03;2.80;;;13.90;99.90;;;;;;4974586;28;20212;-77
2023/03/24 05:42:09;;;;;;;3.47;2.63;;;13.80;99.90;;;;;;4973010;28;20224;-78
2023/03/24 05:44:36;;;;;;;3.40;2.53;;;13.80;99.90;;;;;;4964798;28;20255;-78
2023/03/24 05:47:14;;;;;;;3.40;2.60;;;13.80;99.90;;;;;;4969366;28;20305;-78
2023/03/24 05:49:42;;;;;;;4.07;2.70;;;13.70;99.90;;;;;;4968702;28;20257;-78
2023/03/24 05:52:10;;;;;;;2.90;2.60;;;13.60;99.90;;;;;;4967653;28;20232;-78
2023/03/24 05:54:40;;;;;;;2.73;2.53;;;13.50;99.90;;;;;;4966026;28;20212;-78
2023/03/24 05:57:20;;;;;;;3.53;2.60;;;13.50;99.90;;;;;;4952239;28;20206;-78
2023/03/24 06:00:13;;;;;;;2.93;2.50;;;13.40;99.90;;;;;;4966200;28;20215;-78
2023/03/24 06:03:06;;;;;;;2.90;2.67;;;13.40;99.90;;;;;;4963124;28;20308;-78
2023/03/24 06:05:41;;;;;;;3.00;2.70;;;13.40;99.90;;;;;;4967547;28;20223;-79
2023/03/24 06:08:08;;;;;;;2.87;2.63;;;13.40;99.90;;;;;;4970046;28;20230;-78
2023/03/24 06:10:39;;;;;;;3.03;2.80;;;13.30;99.90;;;;;;4965289;28;20667;-78
2023/03/24 06:13:07;;;;;;;4.20;2.80;;;13.30;99.90;;;;;;4961891;28;20298;-79
2023/03/24 06:15:38;;;;;;;2.90;2.60;;;13.30;99.90;;;;;;4972004;28;20216;-78
2023/03/24 06:18:20;;;;;;;4.30;2.87;;;13.30;99.90;;;;;;4970085;28;20655;-79
2023/03/24 06:20:49;;;;;;;3.23;2.93;;;13.30;99.90;;;;;;4969269;28;20388;-79
2023/03/24 06:23:26;;;;;;;4.30;2.97;;;13.30;99.90;;;;;;4967509;28;20236;-78
2023/03/24 06:26:11;;;;;;;2.77;2.57;;;13.30;99.90;;;;;;4965191;28;20267;-78
2023/03/24 06:28:50;;;;;;;3.00;2.80;;;13.40;99.90;;;;;;4964188;28;20223;-79
2023/03/24 06:31:20;;;;;;;3.23;2.93;;;13.40;99.90;;;;;;4959858;28;20746;-78
2023/03/24 06:33:47;;;;;;;3.47;2.83;;;13.40;99.90;;;;;;4969001;28;20202;-78
2023/03/24 06:36:15;;;;;;;3.87;2.83;;;13.40;99.90;;;;;;4972818;28;20294;-78
2023/03/24 06:38:43;;;;;;;4.10;2.87;;;13.50;99.90;;;;;;4966180;28;20707;-78
2023/03/24 06:41:13;;;;;;;3.10;2.80;;;13.50;99.90;;;;;;4966469;28;20218;-79
2023/03/24 06:43:40;;;;;;;3.57;2.50;;;13.50;99.90;;;;;;4955151;28;20204;-78
2023/03/24 06:46:08;;;;;;;3.00;2.80;;;13.50;99.90;;;;;;4972019;28;20198;-78
2023/03/24 06:48:38;;;;;;;3.27;2.90;;;13.50;99.90;;;;;;4966535;28;20354;-78
2023/03/24 06:51:07;;;;;;;2.83;2.60;;;13.60;99.90;;;;;;4967532;28;20255;-79
2023/03/24 06:53:36;;;;;;;3.27;2.97;;;13.70;99.90;;;;;;4968157;28;20201;-78
2023/03/24 06:56:03;;;;;;;3.30;2.90;;;13.80;99.90;;;;;;4970333;28;20568;-78
2023/03/24 06:58:39;;;;;;;3.73;2.90;;;13.80;99.90;;;;;;4964466;28;20191;-78
2023/03/24 07:01:15;;;;;;;3.47;2.83;;;13.90;99.90;;;;;;4960409;28;20236;-78
2023/03/24 07:04:01;;;;;;;3.10;2.80;;;14.00;99.90;;;;;;4972727;28;20201;-78
2023/03/24 07:06:54;;;;;;;3.53;3.23;;;14.10;99.90;;;;;;4967485;28;20665;-78
2023/03/24 07:09:23;;;;;;;3.17;2.97;;;14.10;99.90;;;;;;4969031;28;20252;-78
2023/03/24 07:11:50;;;;;;;3.23;2.93;;;14.10;99.90;;;;;;4963384;28;20219;-78
2023/03/24 07:14:20;;;;;;;3.30;3.00;;;14.00;99.90;;;;;;4965247;28;20257;-78
2023/03/24 07:16:48;;;;;;;4.60;3.20;;;14.00;99.90;;;;;;4959526;28;20579;-79
2023/03/24 07:19:44;;;;;;;3.60;2.93;;;13.90;99.90;;;;;;4944341;28;20208;-78
2023/03/24 07:22:30;;;;;;;4.50;3.00;;;13.90;99.90;;;;;;4967398;28;20230;-78
2023/03/24 07:25:30;;;;;;;4.33;3.97;;;13.80;99.90;;;;;;4962939;28;20198;-78
2023/03/24 07:28:23;;;;;;;3.43;2.90;;;13.70;99.90;;;;;;4940603;28;20256;-78
2023/03/24 07:30:52;;;;;;;3.70;3.30;;;13.60;99.90;;;;;;4948561;28;20338;-78
2023/03/24 07:33:20;;;;;;;4.00;3.60;;;13.50;99.90;;;;;;4962899;28;20209;-77
2023/03/24 07:35:47;;;;;;;3.60;3.30;;;13.50;99.90;;;;;;4973908;28;20198;-77
2023/03/24 07:38:14;;;;;;;4.13;3.77;;;13.40;99.90;;;;;;4972054;28;20295;-78
2023/03/24 07:40:41;;;;;;;4.30;3.90;;;13.40;99.90;;;;;;4971403;28;20568;-79
2023/03/24 07:43:08;;;;;;;5.27;3.73;;;13.40;99.90;;;;;;4954146;28;20198;-78
2023/03/24 07:45:45;;;;;;;4.13;3.73;;;13.40;99.90;;;;;;4959407;28;20844;-77
2023/03/24 07:48:13;;;;;;;3.87;3.57;;;13.40;99.90;;;;;;4969941;28;20258;-78
2023/03/24 07:50:40;;;;;;;4.07;3.67;;;13.40;99.90;;;;;;4970386;28;20198;-78
2023/03/24 07:53:25;;;;;;;3.80;3.50;;;13.40;99.90;;;;;;4970561;28;20202;-78
2023/03/24 07:55:52;;;;;;;5.63;3.57;;;13.40;99.90;;;;;;4958063;28;20285;-77
2023/03/24 07:58:23;;;;;;;5.83;3.80;;;13.40;99.90;;;;;;4971979;28;20194;-78
2023/03/24 08:01:03;;;;;;;3.77;3.37;;;13.40;99.90;;;;;;4970920;28;20231;-78
2023/03/24 08:03:41;;;;;;;5.10;3.90;;;13.40;99.90;;;;;;4977996;28;20289;-78
2023/03/24 08:06:17;;;;;;;4.13;3.73;;;13.50;99.90;;;;;;4975052;28;20230;-78
2023/03/24 08:08:50;;;;;;;4.17;3.70;;;13.50;99.90;;;;;;4971335;28;20242;-78
2023/03/24 08:11:17;;;;;;;4.67;4.23;;;13.50;99.90;;;;;;4972167;28;20222;-80
2023/03/24 08:13:44;;;;;;;7.53;3.90;;;13.50;99.90;;;;;;4972648;28;20205;-80
2023/03/24 08:16:11;;;;;;;4.10;3.70;;;13.50;99.90;;;;;;4955083;28;20202;-80
2023/03/24 08:18:38;;;;;;;5.90;3.90;;;13.40;99.90;;;;;;4952986;28;20201;-80
2023/03/24 08:21:06;;;;;;;5.00;4.13;;;13.50;99.90;;;;;;4959122;28;20599;-81
2023/03/24 08:23:35;;;;;;;5.77;3.70;;;13.50;99.90;;;;;;4964856;28;20704;-81
2023/03/24 08:26:02;;;;;;;5.47;4.30;;;13.50;99.90;;;;;;4971261;28;20198;-81
2023/03/24 08:28:29;;;;;;;5.40;4.00;;;13.60;99.90;;;;;;4970745;28;20223;-81
2023/03/24 08:30:56;;;;;;;4.40;3.93;;;13.70;99.90;;;;;;4973931;28;20245;-80
2023/03/24 08:33:22;;;;;;;5.03;3.90;;;13.70;99.90;;;;;;4976657;28;20220;-80
2023/03/24 08:35:51;;;;;;;5.90;4.07;;;13.70;99.90;;;;;;4970676;28;20203;-80
2023/03/24 08:38:22;;;;;;;4.40;4.00;;;13.80;99.90;;;;;;4968950;28;20203;-80
2023/03/24 08:40:50;;;;;;;5.53;4.70;;;13.70;99.90;;;;;;4968617;28;20316;-80
2023/03/24 08:43:18;;;;;;;5.70;4.23;;;13.70;99.90;;;;;;4973769;28;20207;-79
2023/03/24 08:45:45;;;;;;;4.90;4.40;;;13.60;99.90;;;;;;4963246;28;20261;-81
2023/03/24 08:48:12;;;;;;;5.20;4.20;;;13.60;99.90;;;;;;4973769;28;20293;-79
2023/03/24 08:50:41;;;;;;;4.40;3.90;;;13.60;99.90;;;;;;4968651;28;20675;-80
2023/03/24 08:53:10;;;;;;;4.70;4.20;;;13.60;99.90;;;;;;4971392;28;20790;-82
2023/03/24 08:55:40;;;;;;;4.70;4.20;;;13.60;99.90;;;;;;4946295;28;20253;-77
2023/03/24 08:58:07;;;;;;;4.37;3.97;;;13.70;99.90;;;;;;4949746;28;20255;-79
2023/03/24 09:00:34;;;;;;;3.80;3.50;;;13.60;99.90;;;;;;4947380;28;20233;-77
2023/03/24 09:03:01;;;;;;;3.70;3.40;;;13.60;99.90;;;;;;4950822;28;20691;-77
2023/03/24 09:05:28;;;;;;;3.80;3.47;;;13.70;99.90;;;;;;4947465;28;20230;-77
2023/03/24 09:07:55;;;;;;;3.70;3.30;;;13.70;99.90;;;;;;4951038;28;20610;-76
2023/03/24 09:10:22;;;;;;;3.40;3.10;;;13.80;99.90;;;;;;4946278;28;20209;-76
2023/03/24 09:12:51;;;;;;;3.43;2.97;;;13.90;99.90;;;;;;4946801;28;20584;-77
2023/03/24 09:15:18;;;;;;;3.50;3.20;;;14.00;99.90;;;;;;4949571;28;20674;-77
2023/03/24 09:17:45;;;;;;;3.23;2.93;;;14.00;99.90;;;;;;4947339;28;20205;-80
2023/03/24 09:20:14;;;;;;;2.90;2.70;;;14.10;99.90;;;;;;4946761;28;20219;-79
2023/03/24 09:22:43;;;;;;;2.80;2.60;;;14.20;99.90;;;;;;4951720;28;20304;-79
2023/03/24 09:25:12;;;;;;;3.10;2.80;;;14.30;99.90;;;;;;4950726;28;20245;-80
2023/03/24 09:27:39;;;;;;;2.47;2.33;;;14.40;99.90;;;;;;4955323;28;20199;-79
2023/03/24 09:30:09;;;;;;;2.50;2.30;;;14.70;99.90;;;;;;4951740;28;20207;-79
2023/03/24 09:32:36;;;;;;;2.53;2.33;;;15.00;99.90;;;;;;4952567;28;20268;-80
2023/03/24 09:35:03;;;;;;;2.60;2.40;;;15.20;99.90;;;;;;4946328;28;20301;-79
2023/03/24 09:37:31;;;;;;;2.53;2.33;;;15.30;99.90;;;;;;4941828;28;20225;-78
2023/03/24 09:40:00;;;;;;;2.90;2.70;;;15.50;99.90;;;;;;4946558;28;20202;-80
2023/03/24 09:42:30;;;;;;;2.63;2.43;;;15.60;99.90;;;;;;4958622;28;20234;-80
2023/03/24 09:44:58;;;;;;;2.97;2.20;;;15.80;99.90;;;;;;4953312;28;20209;-79
2023/03/24 09:47:31;;;;;;;2.50;2.30;;;15.90;99.90;;;;;;4957925;28;22249;-79
2023/03/24 09:50:01;;;;;;;2.40;2.30;;;16.10;99.90;;;;;;4953941;28;20246;-80
2023/03/24 09:52:33;;;;;;;2.23;2.03;;;16.30;99.90;;;;;;4958039;28;20229;-79
2023/03/24 09:55:02;;;;;;;2.43;2.03;;;16.40;99.90;;;;;;4954528;28;20203;-79
2023/03/24 09:57:35;;;;;;;2.43;2.20;;;16.70;99.90;;;;;;4951588;28;20199;-81
2023/03/24 10:00:09;;;;;;;2.30;2.20;;;16.80;99.90;;;;;;4951776;28;20203;-78
2023/03/24 10:02:40;;;;;;;2.17;2.07;;;17.00;99.90;;;;;;4947929;28;20617;-78
2023/03/24 10:05:13;;;;;;;2.10;2.00;;;17.10;99.90;;;;;;4949899;28;20206;-78
2023/03/24 10:07:46;;;;;;;2.50;2.30;;;17.40;99.90;;;;;;4945051;28;20201;-78
2023/03/24 10:10:24;;;;;;;2.33;2.20;;;17.50;99.90;;;;;;4948480;28;20601;-78
2023/03/24 10:12:52;;;;;;;2.50;2.40;;;17.80;99.90;;;;;;4944086;28;20195;-78
2023/03/24 10:15:28;;;;;;;3.00;2.80;;;17.90;99.90;;;;;;4953922;28;20567;-78
2023/03/24 10:18:01;;;;;;;3.40;3.10;;;18.00;99.90;;;;;;4952468;28;20203;-78
2023/03/24 10:20:35;;;;;;;2.90;2.70;;;17.90;99.90;;;;;;4948104;28;20193;-78
2023/03/24 10:23:16;;;;;;;2.63;2.43;;;18.00;99.90;;;;;;4943604;28;20247;-78
2023/03/24 10:25:51;;;;;;;2.10;1.93;;;18.20;99.90;;;;;;4942943;28;20196;-78
2023/03/24 10:28:20;;;;;;;2.90;2.70;;;18.40;99.90;;;;;;4945890;28;20687;-77
2023/03/24 10:30:50;;;;;;;3.53;3.33;;;18.50;99.90;;;;;;4948324;28;20239;-78
2023/03/24 10:33:19;;;;;;;2.40;2.30;;;18.60;99.90;;;;;;4945732;28;20214;-78
2023/03/24 10:35:55;;;;;;;2.57;2.20;;;18.60;99.90;;;;;;4951096;28;20194;-78
2023/03/24 10:38:23;;;;;;;3.37;2.60;;;18.80;99.90;;;;;;4946575;28;20229;-78
2023/03/24 10:40:50;;;;;;;2.47;2.33;;;18.90;99.90;;;;;;4944355;28;20282;-77
2023/03/24 10:43:18;;;;;;;3.10;2.90;;;18.90;99.90;;;;;;4949079;28;20238;-78
2023/03/24 10:45:49;;;;;;;2.00;1.90;;;18.60;99.90;;;;;;4951951;28;20669;-77
2023/03/24 10:48:40;;;;;;;2.00;1.90;;;18.50;99.90;;;;;;4952309;28;20721;-78
2023/03/24 10:51:08;;;;;;;2.40;2.30;;;18.20;99.90;;;;;;4949966;28;20234;-78
2023/03/24 10:53:34;;;;;;;3.03;2.83;;;18.00;99.90;;;;;;4955249;28;20186;-78
2023/03/24 10:56:01;;;;;;;2.80;2.60;;;17.80;99.90;;;;;;4967900;28;20198;-77
2023/03/24 10:58:35;;;;;;;3.80;3.50;;;17.80;99.90;;;;;;4969480;28;20671;-78
2023/03/24 11:01:02;;;;;;;3.57;3.37;;;17.70;99.90;;;;;;4961587;28;20233;-78
2023/03/24 11:03:31;;;;;;;3.90;3.70;;;17.80;99.90;;;;;;4966899;28;20263;-77
2023/03/24 11:06:02;;;;;;;4.83;4.53;;;17.80;99.90;;;;;;4967204;28;20201;-78
2023/03/24 11:08:34;;;;;;;4.70;4.40;;;17.80;99.90;;;;;;4944153;28;20711;-78
2023/03/24 11:11:12;;;;;;;4.57;4.27;;;17.80;99.90;;;;;;4955331;28;20285;-78
2023/03/24 11:13:39;;;;;;;3.70;3.40;;;17.70;99.90;;;;;;4953926;28;20855;-77
2023/03/24 11:16:12;;;;;;;4.80;4.40;;;17.60;99.90;;;;;;4949690;28;20668;-77
2023/03/24 11:18:55;;;;;;;5.70;5.40;;;17.40;99.90;;;;;;4949261;28;20189;-78
2023/03/24 11:21:23;;;;;;;7.87;7.37;;;17.40;99.90;;;;;;4946344;28;20317;-77
2023/03/24 11:23:50;;;;;;;7.30;6.90;;;17.30;99.90;;;;;;4952615;28;20202;-80
2023/03/24 11:26:21;;;;;;;5.30;5.00;;;17.30;99.90;;;;;;4953268;28;20211;-78
2023/03/24 11:28:52;;;;;;;6.23;5.80;;;17.40;99.90;;;;;;4962724;28;20776;-78
2023/03/24 11:31:29;;;;;;;2.50;2.40;;;17.40;99.90;;;;;;4958965;28;20229;-78
2023/03/24 11:33:59;;;;;;;7.57;6.97;;;17.70;99.90;;;;;;4964453;28;20559;-78
2023/03/24 11:36:48;;;;;;;5.43;5.13;;;17.90;99.90;;;;;;4966405;28;20642;-78
2023/03/24 11:39:18;;;;;;;4.70;4.50;;;18.20;99.90;;;;;;4963304;28;20202;-78
2023/03/24 11:41:52;;;;;;;5.27;4.97;;;18.30;99.90;;;;;;4967790;28;20233;-77
2023/03/24 11:44:21;;;;;;;6.27;5.97;;;18.30;99.90;;;;;;4963190;28;20261;-77
2023/03/24 11:46:52;;;;;;;6.30;5.80;;;18.50;99.90;;;;;;4974142;28;20277;-78
2023/03/24 11:49:22;;;;;;;4.00;3.80;;;18.60;99.90;;;;;;4970074;28;20346;-80
2023/03/24 11:51:54;;;;;;;4.70;4.40;;;18.50;99.90;;;;;;4961837;28;20249;-78
2023/03/24 11:54:24;;;;;;;5.10;4.80;;;18.40;99.90;;;;;;4960531;28;20205;-77
2023/03/24 11:56:53;;;;;;;5.80;5.40;;;18.30;99.90;;;;;;4968064;28;20571;-78
2023/03/24 11:59:31;;;;;;;7.00;6.50;;;18.00;99.90;;;;;;4969801;28;20225;-77
2023/03/24 12:02:04;;;;;;;7.13;6.60;;;17.90;99.90;;;;;;4965464;28;20224;-77
2023/03/24 12:04:42;;;;;;;6.70;6.30;;;17.70;99.90;;;;;;4964388;28;20281;-77
2023/03/24 12:07:43;;;;;;;6.80;6.40;;;17.60;99.90;;;;;;4963041;28;20214;-77
2023/03/24 12:10:21;;;;;;;6.70;6.30;;;17.50;99.90;;;;;;4954433;28;20214;-78
2023/03/24 12:12:55;;;;;;;6.40;6.10;;;17.50;99.90;;;;;;4950935;28;20540;-77
2023/03/24 12:15:37;;;;;;;6.80;6.40;;;17.50;99.90;;;;;;4947245;28;20251;-78
2023/03/24 12:18:36;;;;;;;6.20;5.90;;;17.40;99.90;;;;;;4950160;28;20213;-79
2023/03/24 12:21:11;;;;;;;6.47;6.07;;;17.40;99.90;;;;;;4944417;28;20220;-78
2023/03/24 12:23:50;;;;;;;6.97;6.47;;;17.40;99.90;;;;;;4974368;28;20206;-77
2023/03/24 12:26:20;;;;;;;6.30;5.80;;;17.40;99.90;;;;;;4968578;28;20565;-77
2023/03/24 12:28:56;;;;;;;6.70;6.30;;;17.30;99.90;;;;;;4964832;28;20441;-77
2023/03/24 12:31:46;;;;;;;6.53;6.13;;;17.10;99.90;;;;;;4961706;28;20246;-77
2023/03/24 12:34:33;;;;;;;7.30;6.90;;;17.00;99.90;;;;;;4959532;28;20203;-79
2023/03/24 12:37:07;;;;;;;6.50;6.20;;;17.10;99.90;;;;;;4967139;28;20293;-79
2023/03/24 12:39:42;;;;;;;6.20;5.80;;;17.20;99.90;;;;;;4966529;28;20574;-80
2023/03/24 12:42:11;;;;;;;4.30;4.10;;;17.50;99.90;;;;;;4946186;28;20652;-80
2023/03/24 12:45:06;;;;;;;4.10;3.90;;;17.60;99.90;;;;;;4960212;28;20204;-80
2023/03/24 12:47:53;;;;;;;4.10;3.90;;;17.50;99.90;;;;;;4957122;28;20269;-80
2023/03/24 12:50:32;;;;;;;4.13;3.83;;;17.60;99.90;;;;;;4945008;28;20227;-79
2023/03/24 12:53:09;;;;;;;3.60;3.40;;;17.80;99.90;;;;;;4965473;28;20234;-79
2023/03/24 12:55:43;;;;;;;3.70;3.50;;;18.00;99.90;;;;;;4971004;28;20219;-79
2023/03/24 12:58:16;;;;;;;3.70;3.50;;;18.10;99.90;;;;;;4954612;28;20199;-80
2023/03/24 13:00:52;;;;;;;4.43;4.20;;;18.20;99.90;;;;;;4966046;28;20276;-80
2023/03/24 13:03:25;;;;;;;4.80;4.60;;;18.30;99.90;;;;;;4964154;28;20213;-79
2023/03/24 13:05:55;;;;;;;5.20;4.90;;;18.30;99.90;;;;;;4968695;28;20191;-80
2023/03/24 13:08:28;;;;;;;4.80;4.60;;;18.30;99.90;;;;;;4967952;28;20742;-80
2023/03/24 13:11:01;;;;;;;4.70;4.50;;;18.40;99.90;;;;;;4961423;28;20221;-79
2023/03/24 13:13:32;;;;;;;5.67;5.37;;;18.40;99.90;;;;;;4969411;28;20216;-79
2023/03/24 13:16:03;;;;;;;6.10;5.80;;;18.40;99.90;;;;;;4949207;28;20213;-79
2023/03/24 13:18:32;;;;;;;6.33;6.03;;;18.20;99.90;;;;;;4961016;28;20205;-79
2023/03/24 13:21:04;;;;;;;6.40;6.10;;;17.90;99.90;;;;;;4961590;28;20217;-80
2023/03/24 13:23:44;;;;;;;6.30;6.00;;;17.80;99.90;;;;;;4959646;28;20215;-79
2023/03/24 13:26:22;;;;;;;6.50;6.00;;;17.50;99.90;;;;;;4959324;28;20213;-79
2023/03/24 13:29:00;;;;;;;6.57;6.23;;;17.40;99.90;;;;;;4953641;28;20286;-79
2023/03/24 13:31:28;;;;;;;6.40;6.10;;;17.30;99.90;;;;;;4963802;28;20237;-80
2023/03/24 13:33:56;;;;;;;6.60;6.30;;;17.20;99.90;;;;;;4970770;28;20200;-80
2023/03/24 13:36:39;;;;;;;6.97;6.57;;;17.10;99.90;;;;;;4968889;28;20249;-79
2023/03/24 13:39:11;;;;;;;6.60;6.30;;;17.10;99.90;;;;;;4957156;28;20211;-79
2023/03/24 13:41:39;;;;;;;2.87;2.70;;;17.00;99.90;;;;;;4952736;28;20227;-79
2023/03/24 13:44:15;;;;;;;4.80;4.53;;;16.90;99.90;;;;;;4951236;28;20210;-82
2023/03/24 13:46:42;;;;;;;3.63;3.43;;;16.80;99.90;;;;;;4955730;28;20208;-79
2023/03/24 13:49:14;;;;;;;4.17;3.80;;;16.60;99.90;;;;;;4948061;28;20215;-76
2023/03/24 13:51:44;;;;;;;1.97;1.87;;;16.50;99.90;;;;;;4961569;28;20329;-78
2023/03/24 13:54:15;;;;;;;1.50;1.50;;;16.20;99.90;;;;;;4965499;28;20208;-78
2023/03/24 13:56:52;;;;;;;1.60;1.60;;;16.00;99.90;;;;;;4968377;28;20198;-79
2023/03/24 13:59:28;;;;;;;1.83;1.67;;;15.90;99.90;;;;;;4966033;28;20630;-78
2023/03/24 14:02:23;;;;;;;1.90;1.80;;;16.00;99.90;;;;;;4958835;28;20452;-78
2023/03/24 14:05:04;;;;;;;2.50;2.40;;;16.00;99.90;;;;;;4954027;28;20209;-78
2023/03/24 14:07:49;;;;;;;2.67;2.57;;;16.00;99.90;;;;;;4967987;28;20205;-78
2023/03/24 14:10:39;;;;;;;2.00;1.90;;;16.00;99.90;;;;;;4964632;28;20311;-78
2023/03/24 14:13:20;;;;;;;1.67;1.60;;;15.90;99.90;;;;;;4960880;28;20194;-78
2023/03/24 14:15:50;;;;;;;2.20;1.50;;;15.80;99.90;;;;;;4956457;28;20581;-78
2023/03/24 14:18:41;;;;;;;1.40;1.40;;;15.70;99.90;;;;;;4964333;28;20280;-78
2023/03/24 14:21:10;;;;;;;1.47;1.40;;;15.80;99.90;;;;;;4962018;28;20218;-78
2023/03/24 14:23:39;;;;;;;1.50;1.50;;;15.90;99.90;;;;;;4947746;28;20281;-78
2023/03/24 14:26:11;;;;;;;1.67;1.50;;;16.00;99.90;;;;;;4956388;28;20680;-78
2023/03/24 14:28:40;;;;;;;1.40;1.40;;;16.00;99.90;;;;;;4949719;28;20222;-77
2023/03/24 14:31:23;;;;;;;1.47;1.40;;;15.90;99.90;;;;;;4967824;28;20304;-78
2023/03/24 14:34:02;;;;;;;1.43;1.43;;;15.70;99.90;;;;;;4945076;28;20197;-81
2023/03/24 14:36:31;;;;;;;1.57;1.47;;;15.70;99.90;;;;;;4956572;28;20210;-79
2023/03/24 14:39:11;;;;;;;1.50;1.50;;;15.80;99.90;;;;;;4955468;29;20201;-79
2023/03/24 14:41:40;;;;;;;1.70;1.60;;;15.80;99.90;;;;;;4963613;28;20599;-78
2023/03/24 14:44:07;;;;;;;1.80;1.60;;;15.80;99.90;;;;;;4963102;28;20597;-80
2023/03/24 14:46:41;;;;;;;1.60;1.50;;;15.90;99.90;;;;;;4961128;28;20207;-80
2023/03/24 14:49:22;;;;;;;1.43;1.43;;;15.90;99.90;;;;;;4964036;28;20202;-80
2023/03/24 14:52:02;;;;;;;1.40;1.40;;;15.80;99.90;;;;;;4947533;28;20226;-80
2023/03/24 14:54:34;;;;;;;1.83;1.50;;;15.80;99.90;;;;;;4951756;28;20214;-78
2023/03/24 14:57:02;;;;;;;1.73;1.63;;;15.70;99.90;;;;;;4954935;28;20194;-79
2023/03/24 14:59:37;;;;;;;1.57;1.50;;;15.60;99.90;;;;;;4972004;28;20403;-83
2023/03/24 15:02:16;;;;;;;2.90;1.87;;;15.50;99.90;;;;;;4952301;28;20278;-76
2023/03/24 15:05:15;;;;;;;2.30;2.10;;;15.50;99.90;;;;;;4945164;28;20249;-76
2023/03/24 15:07:42;;;;;;;1.90;1.80;;;15.40;99.90;;;;;;4944833;28;20738;-76
2023/03/24 15:10:14;;;;;;;1.70;1.60;;;15.30;99.90;;;;;;4950376;28;20261;-76
2023/03/24 15:12:44;;;;;;;1.70;1.60;;;15.20;99.90;;;;;;4946184;28;20227;-76
2023/03/24 15:15:16;;;;;;;2.20;2.10;;;15.20;99.90;;;;;;4952306;28;20202;-76
2023/03/24 15:17:45;;;;;;;1.90;1.80;;;15.10;99.90;;;;;;4945870;28;20222;-76
2023/03/24 15:20:23;;;;;;;2.30;2.20;;;15.20;99.90;;;;;;4945524;28;20195;-76
2023/03/24 15:22:53;;;;;;;3.10;2.90;;;15.10;99.90;;;;;;4939581;28;20349;-76
2023/03/24 15:25:24;;;;;;;2.30;2.10;;;15.10;99.90;;;;;;4945713;28;20226;-76
2023/03/24 15:27:51;;;;;;;2.20;2.00;;;15.00;99.90;;;;;;4941658;28;20187;-76
2023/03/24 15:30:18;;;;;;;2.10;2.00;;;15.00;99.90;;;;;;4945490;28;20224;-75
2023/03/24 15:32:47;;;;;;;3.30;2.90;;;15.00;99.90;;;;;;4949536;28;20236;-76
2023/03/24 15:35:17;;;;;;;2.50;2.40;;;15.00;99.90;;;;;;4962989;28;20205;-80
2023/03/24 15:37:49;;;;;;;3.03;2.83;;;15.00;99.90;;;;;;4950192;28;20199;-80
2023/03/24 15:40:35;;;;;;;3.17;3.00;;;14.90;99.90;;;;;;4960191;28;20224;-80
2023/03/24 15:43:04;;;;;;;3.67;3.47;;;14.80;99.90;;;;;;4948771;28;20694;-76
2023/03/24 15:45:32;;;;;;;3.03;2.93;;;14.70;99.90;;;;;;4952188;28;20199;-76
2023/03/24 15:48:05;;;;;;;3.10;2.90;;;14.60;99.90;;;;;;4951341;28;20205;-76
2023/03/24 15:50:35;;;;;;;2.70;2.60;;;14.60;99.90;;;;;;4946064;28;20276;-76
2023/03/24 15:53:06;;;;;;;2.80;2.60;;;14.50;99.90;;;;;;4953076;28;20202;-76
2023/03/24 15:55:34;;;;;;;1.60;1.50;;;14.40;99.90;;;;;;4947416;28;20228;-76
2023/03/24 15:58:16;;;;;;;2.57;2.47;;;14.30;99.90;;;;;;4951967;28;20630;-80
2023/03/24 16:00:44;;;;;;;2.60;2.50;;;14.30;99.90;;;;;;4961163;28;20265;-76
2023/03/24 16:03:14;;;;;;;2.00;1.90;;;14.20;99.90;;;;;;4950409;28;20595;-81
2023/03/24 16:05:47;;;;;;;1.87;1.77;;;14.20;99.90;;;;;;4952324;28;20202;-78
2023/03/24 16:08:26;;;;;;;2.90;2.77;;;14.20;99.90;;;;;;4948233;28;20211;-79
2023/03/24 16:10:59;;;;;;;3.03;2.93;;;14.20;99.90;;;;;;4951602;28;20228;-77
2023/03/24 16:13:26;;;;;;;3.20;3.00;;;14.20;99.90;;;;;;4951656;28;20309;-77
2023/03/24 16:15:57;;;;;;;3.60;3.40;;;14.20;99.90;;;;;;4947026;28;20224;-76
2023/03/24 16:18:30;;;;;;;3.23;3.03;;;14.20;99.90;;;;;;4945596;28;20215;-76
2023/03/24 16:20:57;;;;;;;3.23;3.07;;;14.10;99.90;;;;;;4948185;28;20218;-76
2023/03/24 16:23:25;;;;;;;3.00;2.90;;;14.10;99.90;;;;;;4944259;28;20201;-76